Time;durP1;ratioP1;P1;durP2;ratioP2;P2;SDS_P1;SDS_P2;PMS_P1;PMS_P2;Temp;Humidity;BMP_temperature;BMP_pressure;BME280_temperature;BME280_humidity;BME280_pressure;Samples;Min_cycle;Max_cycle;Signal;HPM_P1;HPM_P2
2023/06/25 00:00:46;;;;;;;12.80;10.18;;;;;;;17.17;80.14;101582.44;7392717;19;20015;-65
2023/06/25 00:03:17;;;;;;;11.48;10.18;;;;;;;17.15;80.31;101583.41;7392306;19;20021;-65
2023/06/25 00:05:46;;;;;;;14.02;10.80;;;;;;;17.13;80.45;101585.28;7391177;19;20035;-65
2023/06/25 00:08:14;;;;;;;13.23;10.60;;;;;;;17.10;80.70;101584.47;7396284;19;20094;-66
2023/06/25 00:10:43;;;;;;;13.57;10.13;;;;;;;17.07;80.99;101586.34;7397925;19;20018;-65
2023/06/25 00:13:12;;;;;;;11.07;9.75;;;;;;;17.04;81.04;101584.69;7399368;19;20095;-65
2023/06/25 00:15:40;;;;;;;12.82;9.85;;;;;;;17.00;81.20;101583.06;7397426;19;20018;-64
2023/06/25 00:18:09;;;;;;;13.45;10.50;;;;;;;16.98;81.37;101586.69;7397484;19;20015;-65
2023/06/25 00:20:40;;;;;;;10.48;9.48;;;;;;;16.93;81.33;101587.72;7399448;19;20017;-66
2023/06/25 00:23:08;;;;;;;14.98;10.82;;;;;;;16.90;81.52;101581.63;7399563;19;20018;-66
2023/06/25 00:25:37;;;;;;;10.77;9.68;;;;;;;16.86;81.56;101580.00;7399662;19;20081;-66
2023/06/25 00:28:08;;;;;;;10.82;9.80;;;;;;;16.82;81.60;101575.72;7399582;19;20078;-66
2023/06/25 00:30:36;;;;;;;11.35;10.00;;;;;;;16.80;82.10;101575.78;7400087;19;20038;-67
2023/06/25 00:33:05;;;;;;;16.20;9.90;;;;;;;16.77;82.08;101571.44;7396588;19;20481;-66
2023/06/25 00:35:46;;;;;;;13.80;10.27;;;;;;;16.74;81.96;101563.63;7397680;19;20486;-66
2023/06/25 00:38:15;;;;;;;16.60;9.95;;;;;;;16.72;82.19;101562.78;7396488;19;20015;-66
2023/06/25 00:40:43;;;;;;;30.27;10.35;;;;;;;16.71;82.53;101562.84;7399545;19;20082;-66
2023/06/25 00:43:15;;;;;;;14.82;9.98;;;;;;;16.69;82.43;101564.69;7396617;19;20025;-67
2023/06/25 00:45:44;;;;;;;10.70;9.25;;;;;;;16.66;82.63;101570.94;7396819;19;20431;-66
2023/06/25 00:48:13;;;;;;;11.98;10.27;;;;;;;16.64;82.45;101567.47;7396682;19;20018;-67
2023/06/25 00:50:44;;;;;;;11.90;9.82;;;;;;;16.62;82.53;101571.97;7398516;19;20077;-66
2023/06/25 00:53:13;;;;;;;11.88;10.45;;;;;;;16.59;82.58;101567.66;7397761;19;20086;-67
2023/06/25 00:55:41;;;;;;;10.88;9.52;;;;;;;16.56;82.84;101573.03;7397370;19;20029;-66
2023/06/25 00:58:10;;;;;;;12.85;10.55;;;;;;;16.54;82.92;101580.19;7398702;19;20021;-68
2023/06/25 01:00:39;;;;;;;12.88;10.38;;;;;;;16.51;82.77;101568.81;7398654;19;20022;-66
2023/06/25 01:03:15;;;;;;;14.00;10.32;;;;;;;16.48;83.26;101575.09;7397571;19;20021;-66
2023/06/25 01:05:53;;;;;;;12.02;10.63;;;;;;;16.47;83.50;101570.72;7398944;19;20081;-65
2023/06/25 01:08:28;;;;;;;11.27;10.07;;;;;;;16.45;83.24;101578.72;7398239;19;20435;-65
2023/06/25 01:10:57;;;;;;;17.95;10.85;;;;;;;16.42;83.62;101570.84;7398499;19;20018;-66
2023/06/25 01:13:26;;;;;;;13.27;11.30;;;;;;;16.37;83.51;101566.63;7397999;19;20089;-65
2023/06/25 01:15:55;;;;;;;14.52;11.02;;;;;;;16.37;83.65;101564.84;7396970;19;20039;-65
2023/06/25 01:18:23;;;;;;;12.25;10.80;;;;;;;16.35;83.66;101574.63;7394026;19;20006;-65
2023/06/25 01:20:57;;;;;;;11.85;10.45;;;;;;;16.33;84.19;101575.56;7398009;19;20018;-65
2023/06/25 01:23:29;;;;;;;18.50;9.80;;;;;;;16.29;83.81;101570.38;7397633;19;20018;-64
2023/06/25 01:25:57;;;;;;;12.50;9.40;;;;;;;16.25;84.07;101568.78;7397991;19;20023;-65
2023/06/25 01:28:32;;;;;;;13.07;11.10;;;;;;;16.24;84.10;101571.47;7397953;19;20021;-65
2023/06/25 01:31:03;;;;;;;11.73;10.45;;;;;;;16.21;84.16;101564.47;7398119;19;20413;-67
2023/06/25 01:33:32;;;;;;;11.70;10.18;;;;;;;16.20;84.41;101565.41;7396599;19;20425;-72
2023/06/25 01:36:07;;;;;;;12.25;10.25;;;;;;;16.18;84.27;101564.56;7394982;19;20035;-71
2023/06/25 01:38:38;;;;;;;12.50;10.88;;;;;;;16.16;84.57;101562.91;7397396;19;20078;-69
2023/06/25 01:41:07;;;;;;;11.88;10.45;;;;;;;16.13;84.81;101551.47;7396274;19;20518;-70
2023/06/25 01:43:35;;;;;;;13.15;10.85;;;;;;;16.11;84.83;101557.75;7396394;19;20019;-66
2023/06/25 01:46:04;;;;;;;11.45;9.68;;;;;;;16.07;84.61;101551.66;7396874;19;20019;-66
2023/06/25 01:48:33;;;;;;;11.82;10.57;;;;;;;16.05;84.90;101555.28;7396878;19;20021;-66
2023/06/25 01:51:01;;;;;;;11.27;10.15;;;;;;;16.03;85.02;101555.34;7397079;19;20015;-66
2023/06/25 01:53:30;;;;;;;14.70;11.13;;;;;;;16.01;85.28;101553.66;7395491;19;20505;-66
2023/06/25 01:56:01;;;;;;;15.10;10.63;;;;;;;15.99;85.32;101556.34;7395532;19;20018;-65
2023/06/25 01:58:29;;;;;;;12.18;10.60;;;;;;;15.97;85.46;101547.59;7397041;19;20082;-65
2023/06/25 02:00:58;;;;;;;12.75;10.05;;;;;;;15.94;85.39;101553.00;7396985;19;20022;-65
2023/06/25 02:03:26;;;;;;;12.13;10.80;;;;;;;15.93;85.43;101554.75;7396321;19;20085;-65
2023/06/25 02:05:54;;;;;;;14.38;10.50;;;;;;;15.92;85.79;101554.81;7396580;19;20355;-65
2023/06/25 02:08:23;;;;;;;12.63;10.25;;;;;;;15.91;85.63;101550.44;7396925;19;20021;-65
2023/06/25 02:10:51;;;;;;;12.02;10.73;;;;;;;15.90;85.79;101546.06;7396816;19;20033;-65
2023/06/25 02:13:22;;;;;;;11.48;10.27;;;;;;;15.89;85.67;101549.63;7394960;19;20014;-65
2023/06/25 02:15:51;;;;;;;13.65;10.38;;;;;;;15.88;85.79;101542.59;7394534;19;20074;-65
2023/06/25 02:18:19;;;;;;;11.45;10.25;;;;;;;15.86;85.87;101544.41;7396269;19;20014;-65
2023/06/25 02:20:48;;;;;;;11.35;10.23;;;;;;;15.85;85.64;101542.72;7396398;19;20023;-65
2023/06/25 02:23:16;;;;;;;13.18;10.50;;;;;;;15.83;85.73;101540.09;7395416;19;20099;-65
2023/06/25 02:25:45;;;;;;;11.63;10.10;;;;;;;15.80;85.75;101530.44;7396275;19;20095;-65
2023/06/25 02:28:13;;;;;;;12.82;10.65;;;;;;;15.80;86.13;101535.72;7394486;19;20099;-64
2023/06/25 02:30:44;;;;;;;12.63;11.15;;;;;;;15.78;86.14;101531.41;7396104;19;20021;-65
2023/06/25 02:33:13;;;;;;;11.35;10.18;;;;;;;15.75;86.17;101537.66;7393998;19;20664;-64
2023/06/25 02:35:43;;;;;;;14.90;12.05;;;;;;;15.75;86.30;101535.00;7395081;19;20024;-65
2023/06/25 02:38:11;;;;;;;12.25;10.45;;;;;;;15.74;86.48;101535.91;7395618;19;20486;-65
2023/06/25 02:40:40;;;;;;;11.88;10.60;;;;;;;15.74;86.44;101533.25;7395811;19;20074;-65
2023/06/25 02:43:08;;;;;;;13.27;11.63;;;;;;;15.75;86.50;101532.34;7393749;19;20477;-64
2023/06/25 02:45:36;;;;;;;12.15;10.85;;;;;;;15.75;86.62;101532.34;7395305;19;20024;-66
2023/06/25 02:48:08;;;;;;;12.25;10.73;;;;;;;15.74;86.59;101525.31;7395300;19;20451;-66
2023/06/25 02:50:36;;;;;;;15.38;11.63;;;;;;;15.76;86.48;101533.25;7395348;19;20025;-65
2023/06/25 02:53:05;;;;;;;12.05;10.70;;;;;;;15.75;86.49;101532.34;7394672;19;20020;-65
2023/06/25 02:55:33;;;;;;;13.02;11.63;;;;;;;15.75;86.57;101524.41;7394567;19;20501;-65
2023/06/25 02:58:02;;;;;;;12.63;10.95;;;;;;;15.75;86.59;101527.06;7393464;19;20036;-66
2023/06/25 03:00:30;;;;;;;14.45;10.77;;;;;;;15.76;86.41;101527.94;7395274;19;20086;-66
2023/06/25 03:02:59;;;;;;;13.15;11.18;;;;;;;15.77;86.53;101529.66;7394406;19;20082;-65
2023/06/25 03:05:30;;;;;;;12.25;11.02;;;;;;;15.76;86.57;101528.81;7395104;19;20078;-66
2023/06/25 03:07:59;;;;;;;14.38;10.52;;;;;;;15.77;86.71;101534.94;7395509;19;20074;-66
2023/06/25 03:10:31;;;;;;;11.32;10.23;;;;;;;15.77;86.41;101527.00;7392903;19;20016;-66
2023/06/25 03:13:00;;;;;;;18.63;10.70;;;;;;;15.78;86.59;101519.06;7393083;19;20029;-66
2023/06/25 03:15:28;;;;;;;13.77;10.65;;;;;;;15.82;86.58;101521.63;7394233;19;20366;-65
2023/06/25 03:17:57;;;;;;;16.55;12.13;;;;;;;15.84;86.70;101520.66;7394954;19;20082;-66
2023/06/25 03:20:25;;;;;;;12.65;10.13;;;;;;;15.86;86.72;101518.84;7394648;19;20029;-66
2023/06/25 03:22:56;;;;;;;12.35;11.02;;;;;;;15.89;86.60;101520.53;7394127;19;20035;-66
2023/06/25 03:25:25;;;;;;;13.02;11.35;;;;;;;15.91;86.63;101516.03;7395080;19;20026;-66
2023/06/25 03:27:53;;;;;;;14.45;11.50;;;;;;;15.93;86.36;101511.56;7394603;19;20031;-65
2023/06/25 03:30:22;;;;;;;12.30;10.57;;;;;;;15.95;86.50;101507.09;7394137;19;20371;-65
2023/06/25 03:32:50;;;;;;;13.50;11.07;;;;;;;15.98;86.20;101501.69;7393820;19;20504;-66
2023/06/25 03:35:19;;;;;;;11.70;10.07;;;;;;;15.99;86.36;101498.13;7392397;19;20036;-66
2023/06/25 03:37:47;;;;;;;12.27;11.00;;;;;;;16.01;86.26;101498.97;7393896;19;20363;-67
2023/06/25 03:40:19;;;;;;;13.48;10.85;;;;;;;16.03;86.34;101493.63;7392315;19;20019;-64
2023/06/25 03:42:47;;;;;;;14.60;11.05;;;;;;;16.05;86.41;101497.06;7396396;19;20027;-65
2023/06/25 03:45:16;;;;;;;13.43;11.05;;;;;;;16.06;86.25;101494.38;7401467;19;20018;-65
2023/06/25 03:47:45;;;;;;;12.95;11.30;;;;;;;16.08;86.20;101491.69;7401448;19;20014;-65
2023/06/25 03:50:13;;;;;;;18.83;16.23;;;;;;;16.10;86.37;101495.16;7398849;19;20019;-66
2023/06/25 03:52:41;;;;;;;16.33;14.63;;;;;;;16.14;86.19;101494.13;7398642;19;20086;-65
2023/06/25 03:55:11;;;;;;;13.48;11.68;;;;;;;16.14;86.14;101488.84;7401006;19;20521;-66
2023/06/25 03:57:42;;;;;;;13.35;10.88;;;;;;;16.16;85.92;101494.06;7398810;19;20010;-65
2023/06/25 04:00:11;;;;;;;11.45;10.25;;;;;;;16.18;85.93;101494.91;7401166;19;20360;-66
2023/06/25 04:02:40;;;;;;;12.02;10.48;;;;;;;16.21;85.64;101486.84;7400995;19;20011;-65
2023/06/25 04:05:09;;;;;;;11.63;10.02;;;;;;;16.25;85.50;101491.09;7401296;19;20031;-67
2023/06/25 04:07:37;;;;;;;11.18;9.98;;;;;;;16.29;85.10;101490.97;7400847;19;20018;-66
2023/06/25 04:10:06;;;;;;;12.70;10.02;;;;;;;16.34;85.30;101487.28;7400260;19;20485;-66
2023/06/25 04:12:35;;;;;;;14.07;10.70;;;;;;;16.37;84.97;101482.75;7400817;19;20019;-66
2023/06/25 04:15:07;;;;;;;13.77;11.35;;;;;;;16.40;84.44;101487.97;7400660;19;20032;-66
2023/06/25 04:17:35;;;;;;;12.10;10.40;;;;;;;16.44;84.25;101483.41;7397716;19;20030;-66
2023/06/25 04:20:04;;;;;;;12.15;10.40;;;;;;;16.48;84.13;101484.16;7400507;19;20183;-66
2023/06/25 04:22:33;;;;;;;10.52;9.43;;;;;;;16.51;84.17;101484.91;7400401;19;20014;-66
2023/06/25 04:25:01;;;;;;;14.07;10.88;;;;;;;16.54;84.11;101478.66;7397644;19;20382;-66
2023/06/25 04:27:30;;;;;;;11.98;10.73;;;;;;;16.58;83.70;101481.16;7400349;19;20015;-66
2023/06/25 04:29:58;;;;;;;13.05;10.27;;;;;;;16.63;83.58;101482.75;7397714;19;20380;-66
2023/06/25 04:32:29;;;;;;;14.07;10.63;;;;;;;16.65;83.78;101486.22;7400181;19;20031;-66
2023/06/25 04:34:58;;;;;;;14.95;10.25;;;;;;;16.69;83.83;101488.69;7397553;19;20018;-66
2023/06/25 04:37:26;;;;;;;13.30;10.45;;;;;;;16.72;83.30;101482.41;7397745;19;20011;-66
2023/06/25 04:39:55;;;;;;;11.43;10.23;;;;;;;16.74;83.63;101476.19;7399810;19;20014;-66
2023/06/25 04:42:23;;;;;;;15.90;10.27;;;;;;;16.80;83.53;101484.81;7398063;19;20014;-66
2023/06/25 04:44:54;;;;;;;18.65;13.93;;;;;;;16.84;83.21;101481.13;7396993;19;20022;-66
2023/06/25 04:47:23;;;;;;;17.98;13.57;;;;;;;16.88;83.24;101485.41;7399312;19;20032;-66
2023/06/25 04:49:54;;;;;;;13.10;10.75;;;;;;;16.92;82.97;101479.09;7399407;19;20022;-66
2023/06/25 04:52:23;;;;;;;14.15;11.75;;;;;;;16.97;83.17;101481.56;7399902;19;20015;-66
2023/06/25 04:54:52;;;;;;;15.52;12.15;;;;;;;17.00;82.72;101477.03;7394214;19;20019;-65
2023/06/25 04:57:20;;;;;;;14.77;10.20;;;;;;;17.05;82.62;101475.06;7396858;19;20031;-66
2023/06/25 04:59:49;;;;;;;16.30;11.48;;;;;;;17.09;82.22;101476.69;7398739;19;20486;-65
2023/06/25 05:02:17;;;;;;;12.95;10.65;;;;;;;17.15;82.26;101482.66;7399090;19;20017;-66
2023/06/25 05:04:46;;;;;;;12.68;10.63;;;;;;;17.21;82.34;101482.44;7396826;19;20097;-66
2023/06/25 05:07:17;;;;;;;14.88;11.38;;;;;;;17.26;82.03;101483.13;7396492;19;20015;-66
2023/06/25 05:09:46;;;;;;;14.30;10.95;;;;;;;17.32;81.53;101484.69;7399243;19;20026;-65
2023/06/25 05:12:14;;;;;;;11.93;10.10;;;;;;;17.37;81.47;101485.38;7398724;19;20031;-66
2023/06/25 05:14:43;;;;;;;13.80;11.38;;;;;;;17.41;81.18;101482.56;7396286;19;20427;-66
2023/06/25 05:17:12;;;;;;;13.40;9.80;;;;;;;17.48;81.09;101488.50;7396766;19;20399;-66
2023/06/25 05:19:40;;;;;;;12.18;9.75;;;;;;;17.53;80.97;101486.50;7398156;19;20490;-66
2023/06/25 05:22:09;;;;;;;12.77;10.30;;;;;;;17.59;80.78;101480.09;7398477;19;20022;-66
2023/06/25 05:24:40;;;;;;;12.50;10.07;;;;;;;17.65;80.92;101479.84;7396501;19;20028;-66
2023/06/25 05:27:09;;;;;;;12.02;10.82;;;;;;;17.71;80.41;101486.72;7396640;19;20023;-66
2023/06/25 05:29:37;;;;;;;11.95;9.88;;;;;;;17.79;80.03;101479.28;7396169;19;20081;-66
2023/06/25 05:32:06;;;;;;;13.95;9.73;;;;;;;17.87;80.08;101473.69;7396041;19;20035;-66
2023/06/25 05:34:35;;;;;;;10.45;9.35;;;;;;;17.94;79.99;101479.66;7396314;19;20035;-65
2023/06/25 05:37:03;;;;;;;11.55;9.55;;;;;;;18.00;79.30;101480.25;7397067;19;20018;-66
2023/06/25 05:39:32;;;;;;;12.98;9.73;;;;;;;18.06;79.24;101481.81;7397340;19;20424;-66
2023/06/25 05:42:03;;;;;;;10.57;9.48;;;;;;;18.14;78.56;101476.16;7396721;19;20014;-66
2023/06/25 05:44:32;;;;;;;11.05;8.65;;;;;;;18.22;78.17;101479.34;7396148;19;20082;-66
2023/06/25 05:47:01;;;;;;;12.45;8.80;;;;;;;18.30;78.38;101482.56;7395785;19;20022;-65
2023/06/25 05:49:29;;;;;;;9.32;8.43;;;;;;;18.40;77.83;101485.69;7397432;19;20022;-65
2023/06/25 05:51:58;;;;;;;12.13;9.05;;;;;;;18.49;77.96;101490.59;7397430;19;20010;-65
2023/06/25 05:54:26;;;;;;;10.88;8.73;;;;;;;18.59;77.18;101483.09;7395765;19;20018;-65
2023/06/25 05:56:55;;;;;;;11.65;9.18;;;;;;;18.70;77.33;101479.94;7396722;19;20439;-66
2023/06/25 05:59:26;;;;;;;11.30;8.82;;;;;;;18.79;76.84;101478.69;7396779;19;20018;-65
2023/06/25 06:01:54;;;;;;;10.48;9.32;;;;;;;18.88;76.35;101478.28;7397521;19;20424;-65
2023/06/25 06:04:23;;;;;;;13.73;8.93;;;;;;;18.98;75.77;101478.75;7394341;19;20019;-65
2023/06/25 06:06:51;;;;;;;9.32;7.78;;;;;;;19.07;75.92;101472.16;7396809;19;20382;-66
2023/06/25 06:09:20;;;;;;;10.23;8.35;;;;;;;19.15;75.50;101476.19;7394818;19;20018;-66
2023/06/25 06:11:48;;;;;;;10.18;8.43;;;;;;;19.25;75.35;101475.78;7396791;19;20039;-66
2023/06/25 06:14:17;;;;;;;11.93;8.65;;;;;;;19.34;74.80;101470.88;7394915;19;20376;-66
2023/06/25 06:16:48;;;;;;;9.57;7.90;;;;;;;19.44;74.14;101468.63;7394479;19;20082;-66
2023/06/25 06:19:16;;;;;;;9.27;8.30;;;;;;;19.53;73.90;101476.16;7396826;19;20385;-66
2023/06/25 06:21:45;;;;;;;9.43;8.40;;;;;;;19.64;73.67;101469.50;7394807;19;20089;-66
2023/06/25 06:24:13;;;;;;;8.88;7.88;;;;;;;19.74;73.35;101464.56;7395299;19;20022;-66
2023/06/25 06:26:42;;;;;;;8.38;6.93;;;;;;;19.83;73.56;101470.34;7396453;19;20019;-66
2023/06/25 06:29:10;;;;;;;10.82;8.00;;;;;;;19.92;73.17;101465.50;7395819;19;20031;-66
2023/06/25 06:31:40;;;;;;;8.98;8.07;;;;;;;20.00;72.64;101469.50;7395858;19;20018;-66
2023/06/25 06:34:11;;;;;;;11.00;8.45;;;;;;;20.12;72.02;101461.81;7395218;19;20082;-67
2023/06/25 06:36:40;;;;;;;9.32;7.57;;;;;;;20.22;71.84;101465.75;7396203;19;20039;-66
2023/06/25 06:39:09;;;;;;;9.15;7.80;;;;;;;20.31;71.60;101467.94;7395799;19;20010;-66
2023/06/25 06:41:37;;;;;;;9.73;7.57;;;;;;;20.44;71.21;101462.00;7394961;19;20023;-67
2023/06/25 06:44:16;;;;;;;7.80;6.97;;;;;;;20.54;70.64;101465.03;7394987;19;20031;-66
2023/06/25 06:46:45;;;;;;;10.75;7.32;;;;;;;20.64;70.30;101467.13;7395804;19;20025;-66
2023/06/25 06:49:17;;;;;;;11.52;6.88;;;;;;;20.74;69.35;101469.31;7395238;19;20019;-68
2023/06/25 06:51:46;;;;;;;10.20;6.65;;;;;;;20.83;69.20;101472.38;7396003;19;20014;-66
2023/06/25 06:54:15;;;;;;;7.95;6.50;;;;;;;20.92;68.94;101463.00;7394215;19;20092;-66
2023/06/25 06:56:43;;;;;;;9.07;7.10;;;;;;;21.03;68.53;101461.56;7394910;19;20086;-66
2023/06/25 06:59:11;;;;;;;8.98;6.15;;;;;;;21.11;67.71;101464.69;7395150;19;20040;-66
2023/06/25 07:01:40;;;;;;;7.32;6.20;;;;;;;21.21;67.47;101455.22;7394905;19;20031;-66
2023/06/25 07:04:08;;;;;;;8.65;6.88;;;;;;;21.33;66.80;101459.00;7393991;19;20023;-66
2023/06/25 07:06:39;;;;;;;7.43;6.70;;;;;;;21.43;66.50;101467.38;7393450;19;20014;-66
2023/06/25 07:09:08;;;;;;;8.40;7.55;;;;;;;21.52;65.89;101458.88;7393502;19;20022;-66
2023/06/25 07:11:36;;;;;;;8.18;6.90;;;;;;;21.63;65.67;101461.81;7394305;19;20015;-65
2023/06/25 07:14:12;;;;;;;7.45;6.20;;;;;;;21.77;65.44;101462.81;7393067;19;20031;-65
2023/06/25 07:16:41;;;;;;;7.32;6.38;;;;;;;21.87;64.47;101461.34;7395327;19;20011;-65
2023/06/25 07:19:10;;;;;;;12.98;7.70;;;;;;;21.97;64.50;101457.16;7402468;19;20014;-65
2023/06/25 07:21:42;;;;;;;9.23;6.90;;;;;;;22.08;63.05;101469.06;7399080;19;20018;-65
2023/06/25 07:24:11;;;;;;;8.05;6.60;;;;;;;22.16;63.10;101464.09;7399428;19;20026;-66
2023/06/25 07:26:46;;;;;;;14.40;10.40;;;;;;;22.27;62.32;101463.47;7401953;19;20384;-65
2023/06/25 07:29:14;;;;;;;9.05;6.93;;;;;;;22.39;62.38;101461.91;7401893;19;20433;-66
2023/06/25 07:31:43;;;;;;;9.20;6.45;;;;;;;22.50;61.46;101458.59;7398902;19;20518;-66
2023/06/25 07:34:11;;;;;;;6.70;5.90;;;;;;;22.60;61.05;101460.59;7399909;19;20031;-65
2023/06/25 07:36:42;;;;;;;7.78;6.50;;;;;;;22.72;60.56;101464.34;7401626;19;20023;-65
2023/06/25 07:39:11;;;;;;;8.00;5.70;;;;;;;22.81;60.08;101470.06;7401443;19;20525;-65
2023/06/25 07:41:39;;;;;;;7.25;6.05;;;;;;;22.90;59.43;101466.84;7397959;19;20091;-66
2023/06/25 07:44:08;;;;;;;6.18;5.57;;;;;;;22.98;59.71;101461.84;7399871;19;20019;-65
2023/06/25 07:46:36;;;;;;;8.85;5.47;;;;;;;23.11;59.17;101459.25;7400774;19;20034;-66
2023/06/25 07:49:05;;;;;;;6.20;5.57;;;;;;;23.21;59.00;101459.56;7398225;19;20011;-66
2023/06/25 07:51:33;;;;;;;7.38;5.43;;;;;;;23.30;57.91;101466.16;7398342;19;20086;-66
2023/06/25 07:54:04;;;;;;;6.15;5.15;;;;;;;23.39;56.94;101460.19;7399288;19;20413;-66
2023/06/25 07:56:33;;;;;;;5.38;4.63;;;;;;;23.49;57.05;101452.41;7401480;19;20018;-66
2023/06/25 07:59:01;;;;;;;5.97;5.35;;;;;;;23.57;56.32;101456.31;7398256;19;20091;-65
2023/06/25 08:01:31;;;;;;;9.35;5.80;;;;;;;23.66;55.61;101462.03;7400936;19;20027;-66
2023/06/25 08:04:00;;;;;;;6.93;5.00;;;;;;;23.70;54.93;101461.72;7397957;19;20022;-66
2023/06/25 08:06:29;;;;;;;6.32;5.68;;;;;;;23.79;54.96;101456.72;7400651;19;20018;-65
2023/06/25 08:08:58;;;;;;;6.38;5.15;;;;;;;23.88;54.87;101453.41;7400097;19;20423;-65
2023/06/25 08:11:29;;;;;;;5.15;4.57;;;;;;;23.98;54.29;101456.38;7400528;19;20027;-65
2023/06/25 08:13:57;;;;;;;5.25;4.53;;;;;;;24.07;54.52;101458.44;7399197;19;20039;-66
2023/06/25 08:16:26;;;;;;;6.75;5.68;;;;;;;24.16;54.05;101454.28;7400484;19;20031;-65
2023/06/25 08:18:54;;;;;;;7.93;5.65;;;;;;;24.20;53.97;101453.97;7397862;19;20022;-65
2023/06/25 08:21:23;;;;;;;6.55;4.93;;;;;;;24.25;53.47;101450.94;7399789;19;20485;-65
2023/06/25 08:23:51;;;;;;;6.18;5.00;;;;;;;24.32;52.94;101448.72;7397686;19;20104;-65
2023/06/25 08:26:20;;;;;;;8.23;4.82;;;;;;;24.39;52.52;101450.88;7399942;19;20035;-65
2023/06/25 08:28:51;;;;;;;5.75;5.15;;;;;;;24.47;51.40;101454.84;7399310;19;20022;-65
2023/06/25 08:31:19;;;;;;;5.85;5.03;;;;;;;24.53;51.91;101454.44;7400154;19;20032;-65
2023/06/25 08:33:48;;;;;;;5.60;5.07;;;;;;;24.62;51.80;101448.41;7398082;19;20474;-65
2023/06/25 08:36:16;;;;;;;5.15;4.60;;;;;;;24.72;51.65;101446.81;7396864;19;20015;-65
2023/06/25 08:38:45;;;;;;;4.72;4.30;;;;;;;24.80;51.11;101448.97;7396913;19;20035;-65
2023/06/25 08:41:13;;;;;;;5.70;4.13;;;;;;;24.86;50.23;101451.22;7399613;19;20043;-65
2023/06/25 08:43:42;;;;;;;5.45;4.68;;;;;;;24.94;50.14;101452.50;7397216;19;20489;-65
2023/06/25 08:46:13;;;;;;;8.65;4.82;;;;;;;25.01;50.09;101448.38;7397204;19;20026;-66
2023/06/25 08:48:42;;;;;;;6.20;4.47;;;;;;;25.09;50.08;101447.84;7397362;19;20018;-65
2023/06/25 08:51:18;;;;;;;9.82;4.32;;;;;;;25.14;49.39;101449.22;7399092;19;20039;-66
2023/06/25 08:53:46;;;;;;;5.88;5.25;;;;;;;25.20;49.84;101448.78;7397373;19;20022;-64
2023/06/25 08:56:18;;;;;;;6.00;4.78;;;;;;;25.26;49.56;101441.25;7398380;19;20044;-66
2023/06/25 08:58:47;;;;;;;5.38;4.88;;;;;;;25.33;49.70;101447.88;7395514;19;20014;-66
2023/06/25 09:01:19;;;;;;;5.25;4.75;;;;;;;25.36;48.57;101442.31;7396116;19;20022;-65
2023/06/25 09:03:47;;;;;;;5.97;5.00;;;;;;;25.37;48.72;101441.34;7397454;19;20023;-66
2023/06/25 09:06:17;;;;;;;8.57;5.85;;;;;;;25.42;48.95;101447.22;7398529;19;20035;-65
2023/06/25 09:08:46;;;;;;;7.75;5.97;;;;;;;25.46;48.57;101445.19;7395598;19;20015;-66
2023/06/25 09:11:14;;;;;;;6.85;5.65;;;;;;;25.49;48.60;101442.25;7395569;19;20022;-66
2023/06/25 09:13:43;;;;;;;6.07;5.47;;;;;;;25.51;48.39;101445.69;7396036;19;20018;-65
2023/06/25 09:16:13;;;;;;;6.55;4.97;;;;;;;25.52;48.24;101436.69;7395332;19;20027;-65
2023/06/25 09:18:44;;;;;;;5.60;4.75;;;;;;;25.58;48.68;101435.34;7395964;19;20475;-65
2023/06/25 09:21:12;;;;;;;6.53;5.22;;;;;;;25.61;48.44;101437.81;7398109;19;20018;-66
2023/06/25 09:23:41;;;;;;;5.57;4.50;;;;;;;25.63;48.19;101436.72;7396248;19;20385;-66
2023/06/25 09:26:11;;;;;;;7.70;5.20;;;;;;;25.68;47.40;101431.03;7397534;19;20510;-66
2023/06/25 09:28:51;;;;;;;5.45;4.78;;;;;;;25.77;47.55;101430.31;7397792;19;20010;-66
2023/06/25 09:31:20;;;;;;;5.38;4.80;;;;;;;25.89;47.30;101427.66;7398271;19;20014;-65
2023/06/25 09:33:54;;;;;;;8.43;4.80;;;;;;;25.99;46.54;101436.75;7395334;19;20478;-66
2023/06/25 09:36:23;;;;;;;6.05;4.70;;;;;;;26.02;46.32;101434.69;7396261;19;20026;-65
2023/06/25 09:38:52;;;;;;;7.03;5.00;;;;;;;26.01;46.20;101422.22;7396306;19;20085;-65
2023/06/25 09:41:24;;;;;;;5.53;5.00;;;;;;;26.06;46.16;101439.84;7394348;19;20023;-66
2023/06/25 09:43:54;;;;;;;6.63;4.75;;;;;;;26.09;46.17;101429.72;7395350;19;20411;-65
2023/06/25 09:46:24;;;;;;;5.28;4.70;;;;;;;26.13;46.11;101431.19;7397917;19;20018;-65
2023/06/25 09:49:01;;;;;;;6.50;4.78;;;;;;;26.17;45.85;101421.06;7396872;19;20481;-65
2023/06/25 09:51:39;;;;;;;5.20;4.70;;;;;;;26.28;46.36;101414.84;7395624;19;20028;-64
2023/06/25 09:54:11;;;;;;;6.20;5.40;;;;;;;26.40;45.86;101410.34;7395835;19;20074;-65
2023/06/25 09:56:41;;;;;;;6.07;4.93;;;;;;;26.46;45.65;101410.72;7397180;19;20019;-65
2023/06/25 09:59:10;;;;;;;5.05;4.35;;;;;;;26.49;45.86;101401.56;7395184;19;20022;-65
2023/06/25 10:01:38;;;;;;;5.88;4.20;;;;;;;26.54;45.46;101411.94;7396867;19;20014;-66
2023/06/25 10:04:10;;;;;;;5.72;4.55;;;;;;;26.60;45.29;101400.69;7395245;19;20137;-66
2023/06/25 10:06:39;;;;;;;5.65;5.10;;;;;;;26.67;45.43;101407.31;7394038;19;20028;-66
2023/06/25 10:09:08;;;;;;;7.68;5.03;;;;;;;26.67;44.65;101396.53;7396187;19;20014;-66
2023/06/25 10:11:37;;;;;;;7.38;4.97;;;;;;;26.61;45.14;101395.19;7396022;19;20026;-66
2023/06/25 10:14:07;;;;;;;5.18;4.47;;;;;;;26.60;45.04;101398.00;7394967;19;20022;-65
2023/06/25 10:16:36;;;;;;;6.05;5.35;;;;;;;26.61;45.28;101392.47;7396577;19;20014;-66
2023/06/25 10:19:05;;;;;;;7.97;7.13;;;;;;;26.67;45.19;101391.16;7395125;19;20074;-65
2023/06/25 10:21:36;;;;;;;9.52;6.60;;;;;;;26.78;45.01;101385.78;7396079;19;20419;-65
2023/06/25 10:24:06;;;;;;;11.30;9.20;;;;;;;26.92;45.13;101383.84;7394366;19;20038;-66
2023/06/25 10:26:37;;;;;;;6.07;5.47;;;;;;;27.04;44.73;101382.81;7395556;19;20380;-66
2023/06/25 10:29:09;;;;;;;5.45;4.95;;;;;;;27.11;44.76;101385.88;7395106;19;20373;-66
2023/06/25 10:31:42;;;;;;;7.35;5.63;;;;;;;27.16;44.46;101380.97;7395399;19;20022;-66
2023/06/25 10:34:11;;;;;;;6.30;4.70;;;;;;;27.24;44.43;101380.34;7394150;19;20015;-66
2023/06/25 10:36:51;;;;;;;6.22;5.50;;;;;;;27.30;44.14;101375.28;7395547;19;20026;-66
2023/06/25 10:39:19;;;;;;;6.40;5.13;;;;;;;27.40;44.27;101377.22;7393972;19;20026;-66
2023/06/25 10:41:49;;;;;;;7.57;5.68;;;;;;;27.45;44.43;101367.78;7395102;19;20031;-65
2023/06/25 10:44:18;;;;;;;7.13;5.15;;;;;;;27.48;44.03;101374.75;7393820;19;20011;-64
2023/06/25 10:46:46;;;;;;;5.13;4.63;;;;;;;27.49;43.99;101371.09;7395049;19;20060;-65
2023/06/25 10:49:21;;;;;;;6.40;5.80;;;;;;;27.49;44.08;101376.47;7394969;19;20463;-64
2023/06/25 10:51:52;;;;;;;5.32;4.82;;;;;;;27.53;44.19;101369.84;7390359;19;20014;-64
2023/06/25 10:54:22;;;;;;;5.10;4.60;;;;;;;27.59;44.28;101365.78;7393370;19;20019;-65
2023/06/25 10:56:53;;;;;;;6.13;5.50;;;;;;;27.70;43.94;101357.66;7394558;19;20025;-64
2023/06/25 10:59:25;;;;;;;7.15;5.50;;;;;;;27.84;43.65;101359.16;7392574;19;20011;-65
2023/06/25 11:01:54;;;;;;;10.98;7.13;;;;;;;27.94;43.73;101357.38;7393100;19;20015;-64
2023/06/25 11:04:22;;;;;;;7.22;5.50;;;;;;;28.03;43.17;101358.47;7393668;19;20014;-65
2023/06/25 11:06:54;;;;;;;7.20;5.93;;;;;;;28.07;43.06;101351.81;7393014;19;20022;-64
2023/06/25 11:09:24;;;;;;;6.03;5.20;;;;;;;28.10;43.20;101347.97;7394852;19;20030;-64
2023/06/25 11:11:54;;;;;;;7.53;6.05;;;;;;;28.13;42.91;101353.09;7394506;19;20509;-64
2023/06/25 11:14:22;;;;;;;6.35;4.80;;;;;;;28.17;43.05;101348.28;7393022;19;20018;-64
2023/06/25 11:16:51;;;;;;;6.05;5.15;;;;;;;28.17;42.50;101346.47;7395030;19;20031;-66
2023/06/25 11:19:19;;;;;;;9.10;5.90;;;;;;;28.16;42.71;101341.19;7392223;19;20031;-66
2023/06/25 11:21:51;;;;;;;6.05;5.53;;;;;;;28.11;42.75;101330.81;7394522;19;20389;-65
2023/06/25 11:24:22;;;;;;;8.70;5.60;;;;;;;28.07;43.06;101343.72;7393511;19;20018;-65
2023/06/25 11:26:59;;;;;;;5.10;4.55;;;;;;;28.04;42.83;101333.19;7392339;19;20131;-65